Karla A — TCCR8 — position and weather

sailwx.info

Track history (hours):
 
Tides and Currents Weather Stations Pressure Air Temp Water Temp Dewpoint Dewpoint Depression Visibility Wind Speed Wind Dir Waves Ship Positions

Karla A

Last reported at 2017-Sep-20 15:05 UTC. Time now 2017-Sep-23 05:44 UTC.
Position N 37°23' E 025°55'.

Length 155 m; draft 8.7 m.

Type: Ship (hazmat cat A). MMSI: 271000744.

Date/timePositionNaut miles runAvg speedWind from/ knotsBaromVisibWave heightAir tempDewpointWater temp
2017-Sep-20 15:05N 37°23' E 025°55'111.6
2017-Sep-20 15:00N 37°24' E 025°55'1211.6
2017-Sep-20 13:59N 37°36' E 025°51'100 3.4
2017-Sep-19 08:49N 39°15' E 025°43'2311.8
2017-Sep-19 06:51N 39°38' E 025°46'612.1
2017-Sep-19 06:20N 39°44' E 025°46'611.3
2017-Sep-19 05:48N 39°50' E 025°47'412.2
2017-Sep-19 05:30N 39°53' E 025°50'11511.9
2017-Sep-18 19:52N 40°49' E 028°02'511.5
2017-Sep-18 19:28N 40°50' E 028°08'511.6
2017-Sep-18 19:00N 40°51' E 028°15'611.9
2017-Sep-18 18:30N 40°52' E 028°23'611.7
2017-Sep-18 18:00N 40°52' E 028°30'611.8
2017-Sep-18 17:29N 40°54' E 028°38'80 2.5
2017-Sep-17 09:56N 40°30' E 026°58'4212.2
2017-Sep-17 06:31N 40°02' E 026°17'612.4
2017-Sep-17 05:59N 40°01' E 026°09'3 4.8
2017-Sep-17 05:24N 39°60' E 026°05'2 4.7
2017-Sep-17 04:59N 39°59' E 026°03'2 4.8
2017-Sep-17 04:30N 39°58' E 026°00'3 5.0
2017-Sep-17 04:00N 39°56' E 025°58'3 4.7
2017-Sep-17 03:17N 39°54' E 025°55'1 4.6
2017-Sep-17 03:00N 39°53' E 025°54'4 6.5
2017-Sep-17 02:27N 39°50' E 025°51'510.1
2017-Sep-17 01:57N 39°45' E 025°48'8310.5
2017-Sep-16 18:03N 38°32' E 025°00'2210.3
2017-Sep-16 15:58N 38°12' E 024°48'6510.1
2017-Sep-16 09:36N 37°17' E 024°06'210.4
2017-Sep-16 09:25N 37°15' E 024°05'410.5
2017-Sep-16 09:01N 37°12' E 024°01'510.3
2017-Sep-16 08:31N 37°09' E 023°56'510.4
2017-Sep-16 08:01N 37°05' E 023°52'510.2
2017-Sep-16 07:31N 37°01' E 023°47'510.2
2017-Sep-16 07:00N 36°58' E 023°43'510.4
2017-Sep-16 06:30N 36°54' E 023°39'510.4
2017-Sep-16 05:59N 36°50' E 023°34'510.4
2017-Sep-16 05:30N 36°46' E 023°30'510.6
2017-Sep-16 05:00N 36°41' E 023°27'65 9.3
2017-Sep-15 22:02N 36°29' E 022°07'011.6
2017-Sep-15 22:00N 36°29' E 022°07'611.8
2017-Sep-15 21:30N 36°32' E 022°00'16211.0
2017-Sep-15 06:42N 38°36' E 019°49'310.2
2017-Sep-15 06:26N 38°39' E 019°47'410.2
2017-Sep-15 06:00N 38°42' E 019°44'4110.5
2017-Sep-15 02:09N 39°18' E 019°18'911.2
2017-Sep-15 01:20N 39°26' E 019°12'610.9
2017-Sep-15 00:49N 39°30' E 019°09'410.7
2017-Sep-15 00:26N 39°34' E 019°06'1210.6
2017-Sep-14 23:21N 39°44' E 018°59'1810.9
2017-Sep-14 21:42N 39°60' E 018°47'310.9
2017-Sep-14 21:26N 40°02' E 018°45'510.9
2017-Sep-14 20:59N 40°07' E 018°42'511.1
2017-Sep-14 20:30N 40°11' E 018°39'1111.1
2017-Sep-14 19:28N 40°21' E 018°31'1310.9
2017-Sep-14 18:16N 40°32' E 018°22'24510.7
2017-Sep-13 19:22N 43°21' E 014°24'410.4
2017-Sep-13 19:00N 43°23' E 014°20'35 9.9
2017-Sep-13 15:26N 43°40' E 013°37'510.9
2017-Sep-13 15:00N 43°39' E 013°31'2 2.8
2017-Sep-13 14:19N 43°37' E 013°30'0 0.0
2017-Sep-13 13:52N 43°37' E 013°30'0 0.0
2017-Sep-13 13:28N 43°37' E 013°30'0 0.0
2017-Sep-13 13:00N 43°37' E 013°30'0 0.0
2017-Sep-13 12:27N 43°37' E 013°30'0 0.0
2017-Sep-13 11:51N 43°37' E 013°30'  
Track history (hours):
 
Tides and Currents Weather Stations Pressure Air Temp Water Temp Dewpoint Dewpoint Depression Visibility Wind Speed Wind Dir Waves Ship Positions

Karla A

Last reported at 2017-Sep-20 15:05 UTC. Time now 2017-Sep-23 05:44 UTC.
Position N 37°23' E 025°55'.

Length 155 m; draft 8.7 m.

Type: Ship (hazmat cat A). MMSI: 271000744.

Date/timePositionNaut miles runAvg speedWind from/ knotsBaromVisibWave heightAir tempDewpointWater temp
2017-Sep-20 15:05N 37°23' E 025°55'111.6
2017-Sep-20 15:00N 37°24' E 025°55'1211.6
2017-Sep-20 13:59N 37°36' E 025°51'100 3.4
2017-Sep-19 08:49N 39°15' E 025°43'2311.8
2017-Sep-19 06:51N 39°38' E 025°46'612.1
2017-Sep-19 06:20N 39°44' E 025°46'611.3
2017-Sep-19 05:48N 39°50' E 025°47'412.2
2017-Sep-19 05:30N 39°53' E 025°50'11511.9
2017-Sep-18 19:52N 40°49' E 028°02'511.5
2017-Sep-18 19:28N 40°50' E 028°08'511.6
2017-Sep-18 19:00N 40°51' E 028°15'611.9
2017-Sep-18 18:30N 40°52' E 028°23'611.7
2017-Sep-18 18:00N 40°52' E 028°30'611.8
2017-Sep-18 17:29N 40°54' E 028°38'80 2.5
2017-Sep-17 09:56N 40°30' E 026°58'4212.2
2017-Sep-17 06:31N 40°02' E 026°17'612.4
2017-Sep-17 05:59N 40°01' E 026°09'3 4.8
2017-Sep-17 05:24N 39°60' E 026°05'2 4.7
2017-Sep-17 04:59N 39°59' E 026°03'2 4.8
2017-Sep-17 04:30N 39°58' E 026°00'3 5.0
2017-Sep-17 04:00N 39°56' E 025°58'3 4.7
2017-Sep-17 03:17N 39°54' E 025°55'1 4.6
2017-Sep-17 03:00N 39°53' E 025°54'4 6.5
2017-Sep-17 02:27N 39°50' E 025°51'510.1
2017-Sep-17 01:57N 39°45' E 025°48'8310.5
2017-Sep-16 18:03N 38°32' E 025°00'2210.3
2017-Sep-16 15:58N 38°12' E 024°48'6510.1
2017-Sep-16 09:36N 37°17' E 024°06'210.4
2017-Sep-16 09:25N 37°15' E 024°05'410.5
2017-Sep-16 09:01N 37°12' E 024°01'510.3
2017-Sep-16 08:31N 37°09' E 023°56'510.4
2017-Sep-16 08:01N 37°05' E 023°52'510.2
2017-Sep-16 07:31N 37°01' E 023°47'510.2
2017-Sep-16 07:00N 36°58' E 023°43'510.4
2017-Sep-16 06:30N 36°54' E 023°39'510.4
2017-Sep-16 05:59N 36°50' E 023°34'510.4
2017-Sep-16 05:30N 36°46' E 023°30'510.6
2017-Sep-16 05:00N 36°41' E 023°27'65 9.3
2017-Sep-15 22:02N 36°29' E 022°07'011.6
2017-Sep-15 22:00N 36°29' E 022°07'611.8
2017-Sep-15 21:30N 36°32' E 022°00'16211.0
2017-Sep-15 06:42N 38°36' E 019°49'310.2
2017-Sep-15 06:26N 38°39' E 019°47'410.2
2017-Sep-15 06:00N 38°42' E 019°44'4110.5
2017-Sep-15 02:09N 39°18' E 019°18'911.2
2017-Sep-15 01:20N 39°26' E 019°12'610.9
2017-Sep-15 00:49N 39°30' E 019°09'410.7
2017-Sep-15 00:26N 39°34' E 019°06'1210.6
2017-Sep-14 23:21N 39°44' E 018°59'1810.9
2017-Sep-14 21:42N 39°60' E 018°47'310.9
2017-Sep-14 21:26N 40°02' E 018°45'510.9
2017-Sep-14 20:59N 40°07' E 018°42'511.1
2017-Sep-14 20:30N 40°11' E 018°39'1111.1
2017-Sep-14 19:28N 40°21' E 018°31'1310.9
2017-Sep-14 18:16N 40°32' E 018°22'24510.7
2017-Sep-13 19:22N 43°21' E 014°24'410.4
2017-Sep-13 19:00N 43°23' E 014°20'35 9.9
2017-Sep-13 15:26N 43°40' E 013°37'510.9
2017-Sep-13 15:00N 43°39' E 013°31'2 2.8
2017-Sep-13 14:19N 43°37' E 013°30'0 0.0
2017-Sep-13 13:52N 43°37' E 013°30'0 0.0
2017-Sep-13 13:28N 43°37' E 013°30'0 0.0
2017-Sep-13 13:00N 43°37' E 013°30'0 0.0
2017-Sep-13 12:27N 43°37' E 013°30'0 0.0
2017-Sep-13 11:51N 43°37' E 013°30'  

Dump ship's entire track history